sensor_id;sensor_type;location;lat;lon;timestamp;temperature;humidity
10417;DHT22;62605;49.432;8.680;2023-02-24T00:02:13;8.80;99.90
10417;DHT22;62605;49.432;8.680;2023-02-24T00:04:44;8.80;99.90
10417;DHT22;62605;49.432;8.680;2023-02-24T00:07:19;8.80;99.90
10417;DHT22;62605;49.432;8.680;2023-02-24T00:09:47;8.80;99.90
10417;DHT22;62605;49.432;8.680;2023-02-24T00:12:16;8.90;99.90
10417;DHT22;62605;49.432;8.680;2023-02-24T00:14:46;8.80;99.90
10417;DHT22;62605;49.432;8.680;2023-02-24T00:17:13;8.80;99.90
10417;DHT22;62605;49.432;8.680;2023-02-24T00:19:40;8.80;99.90
10417;DHT22;62605;49.432;8.680;2023-02-24T00:22:07;8.80;99.90
10417;DHT22;62605;49.432;8.680;2023-02-24T00:24:35;8.80;99.90
10417;DHT22;62605;49.432;8.680;2023-02-24T00:27:04;8.70;99.90
10417;DHT22;62605;49.432;8.680;2023-02-24T00:29:36;8.70;99.90
10417;DHT22;62605;49.432;8.680;2023-02-24T00:32:11;8.70;99.90
10417;DHT22;62605;49.432;8.680;2023-02-24T00:34:39;8.70;99.90
10417;DHT22;62605;49.432;8.680;2023-02-24T00:37:07;8.70;99.90
10417;DHT22;62605;49.432;8.680;2023-02-24T00:39:35;8.70;99.90
10417;DHT22;62605;49.432;8.680;2023-02-24T00:42:06;8.70;99.90
10417;DHT22;62605;49.432;8.680;2023-02-24T00:44:35;8.70;99.90
10417;DHT22;62605;49.432;8.680;2023-02-24T00:47:04;8.60;99.90
10417;DHT22;62605;49.432;8.680;2023-02-24T00:49:36;8.60;99.90
10417;DHT22;62605;49.432;8.680;2023-02-24T00:52:08;8.60;99.90
10417;DHT22;62605;49.432;8.680;2023-02-24T00:54:38;8.60;99.90
10417;DHT22;62605;49.432;8.680;2023-02-24T00:57:05;8.60;99.90
10417;DHT22;62605;49.432;8.680;2023-02-24T00:59:34;8.60;99.90
10417;DHT22;62605;49.432;8.680;2023-02-24T01:02:02;8.60;99.90
10417;DHT22;62605;49.432;8.680;2023-02-24T01:04:33;8.60;99.90
10417;DHT22;62605;49.432;8.680;2023-02-24T01:07:05;8.60;99.90
10417;DHT22;62605;49.432;8.680;2023-02-24T01:09:36;8.60;99.90
10417;DHT22;62605;49.432;8.680;2023-02-24T01:12:06;8.60;99.90
10417;DHT22;62605;49.432;8.680;2023-02-24T01:14:51;8.60;99.90
10417;DHT22;62605;49.432;8.680;2023-02-24T01:17:21;8.60;99.90
10417;DHT22;62605;49.432;8.680;2023-02-24T01:19:49;8.50;99.90
10417;DHT22;62605;49.432;8.680;2023-02-24T01:22:19;8.30;99.90
10417;DHT22;62605;49.432;8.680;2023-02-24T01:24:47;8.40;99.90
10417;DHT22;62605;49.432;8.680;2023-02-24T01:27:16;8.30;99.90
10417;DHT22;62605;49.432;8.680;2023-02-24T01:29:43;8.20;99.90
10417;DHT22;62605;49.432;8.680;2023-02-24T01:32:13;8.20;99.90
10417;DHT22;62605;49.432;8.680;2023-02-24T01:34:41;8.10;99.90
10417;DHT22;62605;49.432;8.680;2023-02-24T01:37:09;8.00;99.90
10417;DHT22;62605;49.432;8.680;2023-02-24T01:39:40;7.90;99.90
10417;DHT22;62605;49.432;8.680;2023-02-24T01:42:12;7.90;99.90
10417;DHT22;62605;49.432;8.680;2023-02-24T01:45:09;7.90;99.90
10417;DHT22;62605;49.432;8.680;2023-02-24T01:47:37;7.90;99.90
10417;DHT22;62605;49.432;8.680;2023-02-24T01:50:05;8.00;99.90
10417;DHT22;62605;49.432;8.680;2023-02-24T01:52:35;8.10;99.90
10417;DHT22;62605;49.432;8.680;2023-02-24T01:55:07;8.10;99.90
10417;DHT22;62605;49.432;8.680;2023-02-24T01:57:38;8.00;99.90
10417;DHT22;62605;49.432;8.680;2023-02-24T02:00:08;8.00;99.90
10417;DHT22;62605;49.432;8.680;2023-02-24T02:02:46;8.00;99.90
10417;DHT22;62605;49.432;8.680;2023-02-24T02:05:16;8.00;99.90
10417;DHT22;62605;49.432;8.680;2023-02-24T02:07:44;8.00;99.90
10417;DHT22;62605;49.432;8.680;2023-02-24T02:10:16;8.00;99.90
10417;DHT22;62605;49.432;8.680;2023-02-24T02:12:44;8.00;99.90
10417;DHT22;62605;49.432;8.680;2023-02-24T02:15:13;8.00;99.90
10417;DHT22;62605;49.432;8.680;2023-02-24T02:17:50;8.00;99.90
10417;DHT22;62605;49.432;8.680;2023-02-24T02:26:58;8.10;99.90
10417;DHT22;62605;49.432;8.680;2023-02-24T02:33:23;8.10;99.90
10417;DHT22;62605;49.432;8.680;2023-02-24T02:36:03;8.10;99.90
10417;DHT22;62605;49.432;8.680;2023-02-24T02:38:36;8.10;99.90
10417;DHT22;62605;49.432;8.680;2023-02-24T02:41:14;8.10;99.90
10417;DHT22;62605;49.432;8.680;2023-02-24T02:43:49;8.00;99.90
10417;DHT22;62605;49.432;8.680;2023-02-24T02:46:23;8.00;99.90
10417;DHT22;62605;49.432;8.680;2023-02-24T02:49:03;8.00;99.90
10417;DHT22;62605;49.432;8.680;2023-02-24T02:51:37;7.90;99.90
10417;DHT22;62605;49.432;8.680;2023-02-24T02:54:11;8.00;99.90
10417;DHT22;62605;49.432;8.680;2023-02-24T02:56:46;8.00;99.90
10417;DHT22;62605;49.432;8.680;2023-02-24T02:59:19;8.00;99.90
10417;DHT22;62605;49.432;8.680;2023-02-24T03:01:52;8.00;99.90
10417;DHT22;62605;49.432;8.680;2023-02-24T03:04:27;8.00;99.90
10417;DHT22;62605;49.432;8.680;2023-02-24T03:07:00;7.90;99.90
10417;DHT22;62605;49.432;8.680;2023-02-24T03:09:30;8.00;99.90
10417;DHT22;62605;49.432;8.680;2023-02-24T03:12:04;8.00;99.90
10417;DHT22;62605;49.432;8.680;2023-02-24T03:14:35;8.00;99.90
10417;DHT22;62605;49.432;8.680;2023-02-24T03:17:07;8.00;99.90
10417;DHT22;62605;49.432;8.680;2023-02-24T03:19:38;8.00;99.90
10417;DHT22;62605;49.432;8.680;2023-02-24T03:22:10;8.00;99.90
10417;DHT22;62605;49.432;8.680;2023-02-24T03:24:40;7.90;99.90
10417;DHT22;62605;49.432;8.680;2023-02-24T03:27:12;7.90;99.90
10417;DHT22;62605;49.432;8.680;2023-02-24T03:29:49;7.90;99.90
10417;DHT22;62605;49.432;8.680;2023-02-24T03:32:23;8.00;99.90
10417;DHT22;62605;49.432;8.680;2023-02-24T03:35:01;7.80;99.90
10417;DHT22;62605;49.432;8.680;2023-02-24T03:37:34;7.90;99.90
10417;DHT22;62605;49.432;8.680;2023-02-24T03:40:07;7.80;99.90
10417;DHT22;62605;49.432;8.680;2023-02-24T03:42:38;7.90;99.90
10417;DHT22;62605;49.432;8.680;2023-02-24T03:45:07;7.90;99.90
10417;DHT22;62605;49.432;8.680;2023-02-24T03:47:35;7.90;99.90
10417;DHT22;62605;49.432;8.680;2023-02-24T03:50:08;7.80;99.90
10417;DHT22;62605;49.432;8.680;2023-02-24T03:52:41;7.70;99.90
10417;DHT22;62605;49.432;8.680;2023-02-24T03:55:20;7.70;99.90
10417;DHT22;62605;49.432;8.680;2023-02-24T03:58:02;7.80;99.90
10417;DHT22;62605;49.432;8.680;2023-02-24T04:00:37;7.70;99.90
10417;DHT22;62605;49.432;8.680;2023-02-24T04:03:13;7.70;99.90
10417;DHT22;62605;49.432;8.680;2023-02-24T04:05:58;7.70;99.90
10417;DHT22;62605;49.432;8.680;2023-02-24T04:08:37;7.60;99.90
10417;DHT22;62605;49.432;8.680;2023-02-24T04:11:11;7.60;99.90
10417;DHT22;62605;49.432;8.680;2023-02-24T04:13:44;7.60;99.90
10417;DHT22;62605;49.432;8.680;2023-02-24T04:16:17;7.60;99.90
10417;DHT22;62605;49.432;8.680;2023-02-24T04:18:53;7.60;99.90
10417;DHT22;62605;49.432;8.680;2023-02-24T04:21:24;7.50;99.90
10417;DHT22;62605;49.432;8.680;2023-02-24T04:23:55;7.50;99.90
10417;DHT22;62605;49.432;8.680;2023-02-24T04:26:24;7.50;99.90
10417;DHT22;62605;49.432;8.680;2023-02-24T04:28:53;7.50;99.90
10417;DHT22;62605;49.432;8.680;2023-02-24T04:31:21;7.50;99.90
10417;DHT22;62605;49.432;8.680;2023-02-24T04:33:51;7.60;99.90
10417;DHT22;62605;49.432;8.680;2023-02-24T04:36:20;7.60;99.90
10417;DHT22;62605;49.432;8.680;2023-02-24T04:38:48;7.60;99.90
10417;DHT22;62605;49.432;8.680;2023-02-24T04:41:16;7.60;99.90
10417;DHT22;62605;49.432;8.680;2023-02-24T04:43:46;7.60;99.90
10417;DHT22;62605;49.432;8.680;2023-02-24T04:46:16;7.70;99.90
10417;DHT22;62605;49.432;8.680;2023-02-24T04:48:43;7.60;99.90
10417;DHT22;62605;49.432;8.680;2023-02-24T04:51:11;7.60;99.90
10417;DHT22;62605;49.432;8.680;2023-02-24T04:53:39;7.60;99.90
10417;DHT22;62605;49.432;8.680;2023-02-24T04:56:07;7.60;99.90
10417;DHT22;62605;49.432;8.680;2023-02-24T04:58:37;7.60;99.90
10417;DHT22;62605;49.432;8.680;2023-02-24T05:01:08;7.70;99.90
10417;DHT22;62605;49.432;8.680;2023-02-24T05:03:37;7.60;99.90
10417;DHT22;62605;49.432;8.680;2023-02-24T05:06:10;7.50;99.90
10417;DHT22;62605;49.432;8.680;2023-02-24T05:08:39;7.60;99.90
10417;DHT22;62605;49.432;8.680;2023-02-24T05:11:06;7.50;99.90
10417;DHT22;62605;49.432;8.680;2023-02-24T05:13:35;7.50;99.90
10417;DHT22;62605;49.432;8.680;2023-02-24T05:16:07;7.50;99.90
10417;DHT22;62605;49.432;8.680;2023-02-24T05:18:34;7.50;99.90
10417;DHT22;62605;49.432;8.680;2023-02-24T05:21:04;7.50;99.90
10417;DHT22;62605;49.432;8.680;2023-02-24T05:23:50;7.50;99.90
10417;DHT22;62605;49.432;8.680;2023-02-24T05:26:20;7.60;99.90
10417;DHT22;62605;49.432;8.680;2023-02-24T05:28:52;7.60;99.90
10417;DHT22;62605;49.432;8.680;2023-02-24T05:31:25;7.60;99.90
10417;DHT22;62605;49.432;8.680;2023-02-24T05:33:54;7.60;99.90
10417;DHT22;62605;49.432;8.680;2023-02-24T05:36:24;7.60;99.90
10417;DHT22;62605;49.432;8.680;2023-02-24T05:38:53;7.60;99.90
10417;DHT22;62605;49.432;8.680;2023-02-24T05:41:23;7.60;99.90
10417;DHT22;62605;49.432;8.680;2023-02-24T05:43:59;7.50;99.90
10417;DHT22;62605;49.432;8.680;2023-02-24T05:46:31;7.60;99.90
10417;DHT22;62605;49.432;8.680;2023-02-24T05:49:00;7.50;99.90
10417;DHT22;62605;49.432;8.680;2023-02-24T05:51:30;7.40;99.90
10417;DHT22;62605;49.432;8.680;2023-02-24T05:54:00;7.40;99.90
10417;DHT22;62605;49.432;8.680;2023-02-24T05:56:29;7.40;99.90
10417;DHT22;62605;49.432;8.680;2023-02-24T05:58:59;7.30;99.90
10417;DHT22;62605;49.432;8.680;2023-02-24T06:01:32;7.40;99.90
10417;DHT22;62605;49.432;8.680;2023-02-24T06:04:02;7.40;99.90
10417;DHT22;62605;49.432;8.680;2023-02-24T06:06:32;7.40;99.90
10417;DHT22;62605;49.432;8.680;2023-02-24T06:09:03;7.60;99.90
10417;DHT22;62605;49.432;8.680;2023-02-24T06:11:35;7.50;99.90
10417;DHT22;62605;49.432;8.680;2023-02-24T06:14:05;7.60;99.90
10417;DHT22;62605;49.432;8.680;2023-02-24T06:16:34;7.60;99.90
10417;DHT22;62605;49.432;8.680;2023-02-24T06:19:02;7.60;99.90
10417;DHT22;62605;49.432;8.680;2023-02-24T06:21:29;7.50;99.90
10417;DHT22;62605;49.432;8.680;2023-02-24T06:23:58;7.40;99.90
10417;DHT22;62605;49.432;8.680;2023-02-24T06:26:26;7.30;99.90
10417;DHT22;62605;49.432;8.680;2023-02-24T06:28:55;7.30;99.90
10417;DHT22;62605;49.432;8.680;2023-02-24T06:31:26;7.30;99.90
10417;DHT22;62605;49.432;8.680;2023-02-24T06:33:53;7.20;99.90
10417;DHT22;62605;49.432;8.680;2023-02-24T06:36:21;7.30;99.90
10417;DHT22;62605;49.432;8.680;2023-02-24T06:38:48;7.30;99.90
10417;DHT22;62605;49.432;8.680;2023-02-24T06:41:17;7.30;99.90
10417;DHT22;62605;49.432;8.680;2023-02-24T06:43:44;7.40;99.90
10417;DHT22;62605;49.432;8.680;2023-02-24T06:46:13;7.50;99.90
10417;DHT22;62605;49.432;8.680;2023-02-24T06:48:42;7.50;99.90
10417;DHT22;62605;49.432;8.680;2023-02-24T06:51:11;7.50;99.90
10417;DHT22;62605;49.432;8.680;2023-02-24T06:53:40;7.50;99.90
10417;DHT22;62605;49.432;8.680;2023-02-24T06:56:09;7.50;99.90
10417;DHT22;62605;49.432;8.680;2023-02-24T06:58:40;7.60;99.90
10417;DHT22;62605;49.432;8.680;2023-02-24T07:01:09;7.60;99.90
10417;DHT22;62605;49.432;8.680;2023-02-24T07:03:37;7.60;99.90
10417;DHT22;62605;49.432;8.680;2023-02-24T07:06:13;7.60;99.90
10417;DHT22;62605;49.432;8.680;2023-02-24T07:08:49;7.60;99.90
10417;DHT22;62605;49.432;8.680;2023-02-24T07:11:17;7.60;99.90
10417;DHT22;62605;49.432;8.680;2023-02-24T07:13:44;7.60;99.90
10417;DHT22;62605;49.432;8.680;2023-02-24T07:16:13;7.70;99.90
10417;DHT22;62605;49.432;8.680;2023-02-24T07:18:41;7.70;99.90
10417;DHT22;62605;49.432;8.680;2023-02-24T07:21:09;7.70;99.90
10417;DHT22;62605;49.432;8.680;2023-02-24T07:23:39;7.80;99.90
10417;DHT22;62605;49.432;8.680;2023-02-24T07:26:07;7.80;99.90
10417;DHT22;62605;49.432;8.680;2023-02-24T07:28:37;7.70;99.90
10417;DHT22;62605;49.432;8.680;2023-02-24T07:31:06;7.70;99.90
10417;DHT22;62605;49.432;8.680;2023-02-24T07:33:34;7.70;99.90
10417;DHT22;62605;49.432;8.680;2023-02-24T07:36:03;7.60;99.90
10417;DHT22;62605;49.432;8.680;2023-02-24T07:38:34;7.70;99.90
10417;DHT22;62605;49.432;8.680;2023-02-24T07:41:04;7.70;99.90
10417;DHT22;62605;49.432;8.680;2023-02-24T07:43:33;7.80;99.90
10417;DHT22;62605;49.432;8.680;2023-02-24T07:46:08;7.90;99.90
10417;DHT22;62605;49.432;8.680;2023-02-24T07:48:36;7.90;99.90
10417;DHT22;62605;49.432;8.680;2023-02-24T07:51:05;7.90;99.90
10417;DHT22;62605;49.432;8.680;2023-02-24T07:53:33;8.00;99.90
10417;DHT22;62605;49.432;8.680;2023-02-24T07:56:06;8.10;99.90
10417;DHT22;62605;49.432;8.680;2023-02-24T07:58:38;8.10;99.90
10417;DHT22;62605;49.432;8.680;2023-02-24T08:01:08;8.10;99.90
10417;DHT22;62605;49.432;8.680;2023-02-24T08:03:47;8.10;99.90
10417;DHT22;62605;49.432;8.680;2023-02-24T08:06:15;7.90;99.90
10417;DHT22;62605;49.432;8.680;2023-02-24T08:08:52;8.00;99.90
10417;DHT22;62605;49.432;8.680;2023-02-24T08:11:45;8.10;99.90
10417;DHT22;62605;49.432;8.680;2023-02-24T08:14:17;8.10;99.90
10417;DHT22;62605;49.432;8.680;2023-02-24T08:16:46;8.20;99.90
10417;DHT22;62605;49.432;8.680;2023-02-24T08:19:15;8.30;99.90
10417;DHT22;62605;49.432;8.680;2023-02-24T08:21:47;8.30;99.90
10417;DHT22;62605;49.432;8.680;2023-02-24T08:24:16;8.30;99.90
10417;DHT22;62605;49.432;8.680;2023-02-24T08:26:47;8.20;99.90
10417;DHT22;62605;49.432;8.680;2023-02-24T08:29:31;8.30;99.90
10417;DHT22;62605;49.432;8.680;2023-02-24T08:32:05;8.30;99.90
10417;DHT22;62605;49.432;8.680;2023-02-24T08:34:33;8.40;99.90
10417;DHT22;62605;49.432;8.680;2023-02-24T08:37:01;8.40;99.90
10417;DHT22;62605;49.432;8.680;2023-02-24T08:39:28;8.40;99.90
10417;DHT22;62605;49.432;8.680;2023-02-24T08:41:57;8.40;99.90
10417;DHT22;62605;49.432;8.680;2023-02-24T08:44:25;8.50;99.90
10417;DHT22;62605;49.432;8.680;2023-02-24T08:46:53;8.50;99.90
10417;DHT22;62605;49.432;8.680;2023-02-24T08:49:22;8.70;99.90
10417;DHT22;62605;49.432;8.680;2023-02-24T08:51:51;8.60;99.90
10417;DHT22;62605;49.432;8.680;2023-02-24T08:54:20;8.80;99.90
10417;DHT22;62605;49.432;8.680;2023-02-24T08:56:53;8.80;99.90
10417;DHT22;62605;49.432;8.680;2023-02-24T08:59:25;8.80;99.90
10417;DHT22;62605;49.432;8.680;2023-02-24T09:02:04;8.80;99.90
10417;DHT22;62605;49.432;8.680;2023-02-24T09:04:44;8.90;99.90
10417;DHT22;62605;49.432;8.680;2023-02-24T09:07:13;8.90;99.90
10417;DHT22;62605;49.432;8.680;2023-02-24T09:09:41;9.00;99.90
10417;DHT22;62605;49.432;8.680;2023-02-24T09:12:10;9.10;99.90
10417;DHT22;62605;49.432;8.680;2023-02-24T09:14:49;9.00;99.90
10417;DHT22;62605;49.432;8.680;2023-02-24T09:17:21;9.00;99.90
10417;DHT22;62605;49.432;8.680;2023-02-24T09:20:06;9.10;99.90
10417;DHT22;62605;49.432;8.680;2023-02-24T09:22:57;9.00;99.90
10417;DHT22;62605;49.432;8.680;2023-02-24T09:25:28;8.90;99.90
10417;DHT22;62605;49.432;8.680;2023-02-24T09:28:11;8.90;99.90
10417;DHT22;62605;49.432;8.680;2023-02-24T09:30:44;9.10;99.90
10417;DHT22;62605;49.432;8.680;2023-02-24T09:33:21;9.30;99.90
10417;DHT22;62605;49.432;8.680;2023-02-24T09:35:57;9.30;99.90
10417;DHT22;62605;49.432;8.680;2023-02-24T09:38:36;9.30;99.90
10417;DHT22;62605;49.432;8.680;2023-02-24T09:41:29;9.20;99.90
10417;DHT22;62605;49.432;8.680;2023-02-24T09:43:59;9.10;99.90
10417;DHT22;62605;49.432;8.680;2023-02-24T09:46:34;9.00;99.90
10417;DHT22;62605;49.432;8.680;2023-02-24T09:49:09;9.10;99.90
10417;DHT22;62605;49.432;8.680;2023-02-24T09:51:39;9.10;99.90
10417;DHT22;62605;49.432;8.680;2023-02-24T09:54:13;9.10;99.90
10417;DHT22;62605;49.432;8.680;2023-02-24T09:56:48;9.30;99.90
10417;DHT22;62605;49.432;8.680;2023-02-24T09:59:29;9.50;99.90
10417;DHT22;62605;49.432;8.680;2023-02-24T10:02:11;9.50;99.90
10417;DHT22;62605;49.432;8.680;2023-02-24T10:04:53;9.70;99.90
10417;DHT22;62605;49.432;8.680;2023-02-24T10:07:35;9.90;99.90
10417;DHT22;62605;49.432;8.680;2023-02-24T10:10:13;9.90;99.90
10417;DHT22;62605;49.432;8.680;2023-02-24T10:12:53;9.90;99.90
10417;DHT22;62605;49.432;8.680;2023-02-24T10:15:27;10.20;99.90
10417;DHT22;62605;49.432;8.680;2023-02-24T10:18:41;10.00;99.90
10417;DHT22;62605;49.432;8.680;2023-02-24T10:21:19;10.40;99.90
10417;DHT22;62605;49.432;8.680;2023-02-24T10:24:06;10.50;99.90
10417;DHT22;62605;49.432;8.680;2023-02-24T10:26:38;10.50;99.90
10417;DHT22;62605;49.432;8.680;2023-02-24T10:29:20;10.30;99.90
10417;DHT22;62605;49.432;8.680;2023-02-24T10:32:04;10.40;99.90
10417;DHT22;62605;49.432;8.680;2023-02-24T10:34:34;10.30;99.90
10417;DHT22;62605;49.432;8.680;2023-02-24T10:37:09;10.40;99.90
10417;DHT22;62605;49.432;8.680;2023-02-24T10:39:37;10.20;99.90
10417;DHT22;62605;49.432;8.680;2023-02-24T10:42:08;10.40;99.90
10417;DHT22;62605;49.432;8.680;2023-02-24T10:44:43;10.30;99.90
10417;DHT22;62605;49.432;8.680;2023-02-24T10:47:22;10.30;99.90
10417;DHT22;62605;49.432;8.680;2023-02-24T10:49:58;10.50;99.90
10417;DHT22;62605;49.432;8.680;2023-02-24T10:52:29;10.70;99.90
10417;DHT22;62605;49.432;8.680;2023-02-24T10:55:23;10.50;99.90
10417;DHT22;62605;49.432;8.680;2023-02-24T10:57:54;10.20;99.90
10417;DHT22;62605;49.432;8.680;2023-02-24T11:00:38;10.10;99.90
10417;DHT22;62605;49.432;8.680;2023-02-24T11:03:26;10.00;99.90
10417;DHT22;62605;49.432;8.680;2023-02-24T11:06:19;10.00;99.90
10417;DHT22;62605;49.432;8.680;2023-02-24T11:09:14;10.10;99.90
10417;DHT22;62605;49.432;8.680;2023-02-24T11:11:58;10.00;99.90
10417;DHT22;62605;49.432;8.680;2023-02-24T11:14:49;10.20;99.90
10417;DHT22;62605;49.432;8.680;2023-02-24T11:17:35;10.30;99.90
10417;DHT22;62605;49.432;8.680;2023-02-24T11:20:05;10.30;99.90
10417;DHT22;62605;49.432;8.680;2023-02-24T11:22:40;10.60;99.90
10417;DHT22;62605;49.432;8.680;2023-02-24T11:25:13;10.10;99.90
10417;DHT22;62605;49.432;8.680;2023-02-24T11:27:43;10.20;99.90
10417;DHT22;62605;49.432;8.680;2023-02-24T11:30:18;10.10;99.90
10417;DHT22;62605;49.432;8.680;2023-02-24T11:33:06;10.30;99.90
10417;DHT22;62605;49.432;8.680;2023-02-24T11:35:39;10.30;99.90
10417;DHT22;62605;49.432;8.680;2023-02-24T11:38:18;10.40;99.90
10417;DHT22;62605;49.432;8.680;2023-02-24T11:40:58;10.50;99.90
10417;DHT22;62605;49.432;8.680;2023-02-24T11:43:28;10.40;99.90
10417;DHT22;62605;49.432;8.680;2023-02-24T11:46:01;10.70;99.90
10417;DHT22;62605;49.432;8.680;2023-02-24T11:48:33;10.80;99.90
10417;DHT22;62605;49.432;8.680;2023-02-24T11:51:04;10.90;99.90
10417;DHT22;62605;49.432;8.680;2023-02-24T11:53:34;11.10;99.90
10417;DHT22;62605;49.432;8.680;2023-02-24T11:56:05;11.20;99.90
10417;DHT22;62605;49.432;8.680;2023-02-24T11:58:41;11.20;99.90
10417;DHT22;62605;49.432;8.680;2023-02-24T12:01:16;11.30;99.90
10417;DHT22;62605;49.432;8.680;2023-02-24T12:03:51;11.50;99.90
10417;DHT22;62605;49.432;8.680;2023-02-24T12:06:23;11.40;99.90
10417;DHT22;62605;49.432;8.680;2023-02-24T12:09:00;11.50;99.90
10417;DHT22;62605;49.432;8.680;2023-02-24T12:11:38;11.60;99.90
10417;DHT22;62605;49.432;8.680;2023-02-24T12:14:20;11.30;99.90
10417;DHT22;62605;49.432;8.680;2023-02-24T12:16:55;11.30;99.90
10417;DHT22;62605;49.432;8.680;2023-02-24T12:19:30;11.10;99.90
10417;DHT22;62605;49.432;8.680;2023-02-24T12:22:03;11.10;99.90
10417;DHT22;62605;49.432;8.680;2023-02-24T12:24:36;11.30;99.90
10417;DHT22;62605;49.432;8.680;2023-02-24T12:27:13;11.50;99.90
10417;DHT22;62605;49.432;8.680;2023-02-24T12:29:59;11.50;99.90
10417;DHT22;62605;49.432;8.680;2023-02-24T12:32:47;11.50;99.90
10417;DHT22;62605;49.432;8.680;2023-02-24T12:35:23;11.30;99.90
10417;DHT22;62605;49.432;8.680;2023-02-24T12:38:02;11.30;99.90
10417;DHT22;62605;49.432;8.680;2023-02-24T12:40:41;11.00;99.90
10417;DHT22;62605;49.432;8.680;2023-02-24T12:43:21;10.90;99.90
10417;DHT22;62605;49.432;8.680;2023-02-24T12:45:54;10.80;99.90
10417;DHT22;62605;49.432;8.680;2023-02-24T12:48:43;11.10;99.90
10417;DHT22;62605;49.432;8.680;2023-02-24T12:51:19;11.10;99.90
10417;DHT22;62605;49.432;8.680;2023-02-24T12:53:53;11.20;99.90
10417;DHT22;62605;49.432;8.680;2023-02-24T12:56:30;11.00;99.90
10417;DHT22;62605;49.432;8.680;2023-02-24T12:59:04;11.10;99.90
10417;DHT22;62605;49.432;8.680;2023-02-24T13:01:38;11.10;99.90
10417;DHT22;62605;49.432;8.680;2023-02-24T13:04:20;11.00;99.90
10417;DHT22;62605;49.432;8.680;2023-02-24T13:07:00;10.70;99.90
10417;DHT22;62605;49.432;8.680;2023-02-24T13:09:36;10.90;99.90
10417;DHT22;62605;49.432;8.680;2023-02-24T13:12:14;11.00;99.90
10417;DHT22;62605;49.432;8.680;2023-02-24T13:14:43;10.80;99.90
10417;DHT22;62605;49.432;8.680;2023-02-24T13:17:18;10.70;99.90
10417;DHT22;62605;49.432;8.680;2023-02-24T13:19:46;10.90;99.90
10417;DHT22;62605;49.432;8.680;2023-02-24T13:22:22;10.90;99.90
10417;DHT22;62605;49.432;8.680;2023-02-24T13:25:16;11.20;99.90
10417;DHT22;62605;49.432;8.680;2023-02-24T13:27:57;11.10;99.90
10417;DHT22;62605;49.432;8.680;2023-02-24T13:30:34;11.10;99.90
10417;DHT22;62605;49.432;8.680;2023-02-24T13:33:06;11.50;99.90
10417;DHT22;62605;49.432;8.680;2023-02-24T13:35:48;11.70;99.90
10417;DHT22;62605;49.432;8.680;2023-02-24T13:38:33;11.70;99.90
10417;DHT22;62605;49.432;8.680;2023-02-24T13:41:32;11.60;99.90
10417;DHT22;62605;49.432;8.680;2023-02-24T13:44:20;11.70;99.90
10417;DHT22;62605;49.432;8.680;2023-02-24T13:46:59;11.90;99.90
10417;DHT22;62605;49.432;8.680;2023-02-24T13:49:35;11.80;99.90
10417;DHT22;62605;49.432;8.680;2023-02-24T13:52:14;12.30;99.90
10417;DHT22;62605;49.432;8.680;2023-02-24T13:55:07;12.40;99.90
10417;DHT22;62605;49.432;8.680;2023-02-24T13:57:58;12.10;99.90
10417;DHT22;62605;49.432;8.680;2023-02-24T14:00:41;12.00;99.90
10417;DHT22;62605;49.432;8.680;2023-02-24T14:03:20;12.20;99.90
10417;DHT22;62605;49.432;8.680;2023-02-24T14:05:48;12.00;99.90
10417;DHT22;62605;49.432;8.680;2023-02-24T14:08:20;11.90;99.90
10417;DHT22;62605;49.432;8.680;2023-02-24T14:10:51;12.00;99.90
10417;DHT22;62605;49.432;8.680;2023-02-24T14:13:23;11.90;99.90
10417;DHT22;62605;49.432;8.680;2023-02-24T14:15:55;12.10;99.90
10417;DHT22;62605;49.432;8.680;2023-02-24T14:18:27;12.40;99.90
10417;DHT22;62605;49.432;8.680;2023-02-24T14:20:56;12.40;99.90
10417;DHT22;62605;49.432;8.680;2023-02-24T14:23:25;12.30;99.90
10417;DHT22;62605;49.432;8.680;2023-02-24T14:25:54;12.30;99.90
10417;DHT22;62605;49.432;8.680;2023-02-24T14:28:25;12.10;99.90
10417;DHT22;62605;49.432;8.680;2023-02-24T14:30:56;12.10;99.90
10417;DHT22;62605;49.432;8.680;2023-02-24T14:33:27;12.00;99.90
10417;DHT22;62605;49.432;8.680;2023-02-24T14:35:55;12.00;99.90
10417;DHT22;62605;49.432;8.680;2023-02-24T14:38:31;12.00;99.90
10417;DHT22;62605;49.432;8.680;2023-02-24T14:40:59;12.00;99.90
10417;DHT22;62605;49.432;8.680;2023-02-24T14:43:27;12.00;99.90
10417;DHT22;62605;49.432;8.680;2023-02-24T14:45:55;11.90;99.90
10417;DHT22;62605;49.432;8.680;2023-02-24T14:48:24;11.80;99.90
10417;DHT22;62605;49.432;8.680;2023-02-24T14:50:53;11.70;99.90
10417;DHT22;62605;49.432;8.680;2023-02-24T14:53:22;11.70;99.90
10417;DHT22;62605;49.432;8.680;2023-02-24T14:55:51;11.70;99.90
10417;DHT22;62605;49.432;8.680;2023-02-24T14:58:24;11.70;99.90
10417;DHT22;62605;49.432;8.680;2023-02-24T15:00:59;11.70;99.90
10417;DHT22;62605;49.432;8.680;2023-02-24T15:03:30;11.70;99.90
10417;DHT22;62605;49.432;8.680;2023-02-24T15:06:05;11.60;99.90
10417;DHT22;62605;49.432;8.680;2023-02-24T15:08:35;11.40;99.90
10417;DHT22;62605;49.432;8.680;2023-02-24T15:11:10;11.40;99.90
10417;DHT22;62605;49.432;8.680;2023-02-24T15:13:45;11.40;99.90
10417;DHT22;62605;49.432;8.680;2023-02-24T15:16:18;11.50;99.90
10417;DHT22;62605;49.432;8.680;2023-02-24T15:18:49;11.50;99.90
10417;DHT22;62605;49.432;8.680;2023-02-24T15:21:22;11.50;99.90
10417;DHT22;62605;49.432;8.680;2023-02-24T15:23:58;11.50;99.90
10417;DHT22;62605;49.432;8.680;2023-02-24T15:26:27;11.50;99.90
10417;DHT22;62605;49.432;8.680;2023-02-24T15:28:59;11.40;99.90
10417;DHT22;62605;49.432;8.680;2023-02-24T15:31:28;11.30;99.90
10417;DHT22;62605;49.432;8.680;2023-02-24T15:33:58;11.30;99.90
10417;DHT22;62605;49.432;8.680;2023-02-24T15:36:27;11.30;99.90
10417;DHT22;62605;49.432;8.680;2023-02-24T15:39:00;11.20;99.90
10417;DHT22;62605;49.432;8.680;2023-02-24T15:41:37;11.20;99.90
10417;DHT22;62605;49.432;8.680;2023-02-24T15:44:05;11.20;99.90
10417;DHT22;62605;49.432;8.680;2023-02-24T15:46:35;11.10;99.90
10417;DHT22;62605;49.432;8.680;2023-02-24T15:49:03;11.10;99.90
10417;DHT22;62605;49.432;8.680;2023-02-24T15:51:34;11.10;99.90
10417;DHT22;62605;49.432;8.680;2023-02-24T15:54:03;11.00;99.90
10417;DHT22;62605;49.432;8.680;2023-02-24T15:56:33;11.00;99.90
10417;DHT22;62605;49.432;8.680;2023-02-24T15:59:01;10.90;99.90
10417;DHT22;62605;49.432;8.680;2023-02-24T16:01:32;10.90;99.90
10417;DHT22;62605;49.432;8.680;2023-02-24T16:04:01;10.80;99.90
10417;DHT22;62605;49.432;8.680;2023-02-24T16:06:29;10.70;99.90
10417;DHT22;62605;49.432;8.680;2023-02-24T16:08:57;10.70;99.90
10417;DHT22;62605;49.432;8.680;2023-02-24T16:11:27;10.60;99.90
10417;DHT22;62605;49.432;8.680;2023-02-24T16:13:57;10.60;99.90
10417;DHT22;62605;49.432;8.680;2023-02-24T16:16:25;10.50;99.90
10417;DHT22;62605;49.432;8.680;2023-02-24T16:18:53;10.40;99.90
10417;DHT22;62605;49.432;8.680;2023-02-24T16:21:22;10.40;99.90
10417;DHT22;62605;49.432;8.680;2023-02-24T16:23:49;10.30;99.90
10417;DHT22;62605;49.432;8.680;2023-02-24T16:26:17;10.20;99.90
10417;DHT22;62605;49.432;8.680;2023-02-24T16:28:50;10.20;99.90